createdAt,value
2019-05-23T00:00:39.302Z,99.99
2019-05-23T00:01:38.478Z,99.99
2019-05-23T00:03:38.302Z,99.99
2019-05-23T00:04:38.331Z,99.99
2019-05-23T00:05:38.467Z,99.99
2019-05-23T00:06:38.550Z,99.99
2019-05-23T00:07:38.182Z,99.99
2019-05-23T00:08:38.159Z,99.99
2019-05-23T00:09:38.131Z,99.99
2019-05-23T00:10:38.213Z,99.99
2019-05-23T00:12:38.369Z,99.99
2019-05-23T00:13:38.172Z,99.99
2019-05-23T00:15:38.194Z,99.99
2019-05-23T00:16:37.981Z,99.99
2019-05-23T00:17:38.882Z,99.99
2019-05-23T00:18:38.295Z,99.99
2019-05-23T00:22:37.974Z,99.99
2019-05-23T00:23:37.881Z,99.99
2019-05-23T00:24:38.371Z,99.99
2019-05-23T00:25:37.818Z,99.99
2019-05-23T00:26:37.764Z,99.99
2019-05-23T00:28:37.759Z,99.99
2019-05-23T00:29:40.387Z,99.99
2019-05-23T00:30:38.451Z,99.99
2019-05-23T00:33:37.611Z,99.99
2019-05-23T00:35:37.789Z,99.99
2019-05-23T00:36:37.983Z,99.99
2019-05-23T00:37:37.517Z,99.99
2019-05-23T00:43:37.834Z,99.99
2019-05-23T00:44:37.473Z,99.99
2019-05-23T00:45:37.428Z,99.99
2019-05-23T00:46:37.392Z,99.99
2019-05-23T00:47:37.465Z,99.99
2019-05-23T00:48:37.653Z,99.99
2019-05-23T00:49:37.382Z,99.99
2019-05-23T00:51:37.689Z,99.99
2019-05-23T00:52:40.282Z,99.99
2019-05-23T00:53:37.407Z,99.99
2019-05-23T00:57:37.106Z,99.99
2019-05-23T00:58:37.551Z,99.99
2019-05-23T00:59:37.009Z,99.99
2019-05-23T01:00:37.474Z,99.99
2019-05-23T01:01:38.025Z,99.99
2019-05-23T01:02:36.965Z,99.99
2019-05-23T01:03:37.431Z,99.99
2019-05-23T01:04:36.913Z,99.99
2019-05-23T01:05:37.409Z,99.99
2019-05-23T01:06:36.936Z,99.99
2019-05-23T01:07:37.375Z,99.99
2019-05-23T01:08:37.191Z,99.99
2019-05-23T01:09:36.960Z,99.99
2019-05-23T01:10:36.868Z,99.99
2019-05-23T01:13:37.241Z,99.99
2019-05-23T01:14:36.706Z,99.99
2019-05-23T01:15:36.708Z,99.99
2019-05-23T01:19:36.720Z,99.99
2019-05-23T01:20:36.928Z,99.99
2019-05-23T01:21:36.581Z,99.99
2019-05-23T01:22:36.551Z,99.99
2019-05-23T01:23:36.731Z,99.99
2019-05-23T01:24:36.508Z,99.99
2019-05-23T01:25:36.574Z,99.99
2019-05-23T01:28:36.755Z,99.99
2019-05-23T01:29:49.943Z,99.99
2019-05-23T01:30:36.323Z,99.99
2019-05-23T01:31:36.522Z,99.99
2019-05-23T01:32:36.352Z,99.99
2019-05-23T01:33:36.439Z,99.99
2019-05-23T01:34:36.884Z,99.99
2019-05-23T01:35:36.425Z,99.99
2019-05-23T01:37:36.409Z,99.99
2019-05-23T01:38:36.186Z,99.99
2019-05-23T01:39:36.083Z,99.99
2019-05-23T01:40:36.366Z,99.99
2019-05-23T01:41:36.040Z,99.99
2019-05-23T01:42:36.029Z,99.99
2019-05-23T01:43:36.144Z,99.99
2019-05-23T01:49:36.230Z,99.99
2019-05-23T01:50:35.931Z,99.99
2019-05-23T01:51:35.993Z,99.99
2019-05-23T01:52:37.001Z,99.99
2019-05-23T01:53:35.833Z,99.99
2019-05-23T01:56:35.949Z,99.99
2019-05-23T01:57:35.771Z,99.99
2019-05-23T01:58:35.983Z,99.99
2019-05-23T01:59:48.525Z,99.99
2019-05-23T02:00:35.657Z,99.99
2019-05-23T02:03:35.768Z,99.99
2019-05-23T02:05:35.897Z,99.99
2019-05-23T02:06:38.590Z,99.99
2019-05-23T02:07:35.619Z,99.99
2019-05-23T02:08:35.678Z,99.99
2019-05-23T02:09:35.439Z,99.99
2019-05-23T02:10:35.457Z,99.99
2019-05-23T02:11:35.636Z,99.99
2019-05-23T02:12:35.781Z,99.99
2019-05-23T02:13:35.375Z,99.99
2019-05-23T02:14:35.412Z,99.99
2019-05-23T02:15:35.381Z,99.99
2019-05-23T02:16:35.260Z,99.99
2019-05-23T02:17:35.239Z,99.99
2019-05-23T02:18:35.248Z,99.99
2019-05-23T02:20:35.623Z,99.99
2019-05-23T02:22:35.186Z,99.99
2019-05-23T02:23:35.154Z,99.99
2019-05-23T02:28:35.139Z,99.99
2019-05-23T02:29:55.185Z,99.99
2019-05-23T02:30:36.186Z,99.99
2019-05-23T02:31:35.710Z,99.99
2019-05-23T02:32:34.987Z,99.99
2019-05-23T02:33:35.672Z,99.99
2019-05-23T02:34:35.479Z,99.99
2019-05-23T02:35:34.942Z,99.99
2019-05-23T02:36:35.084Z,99.99
2019-05-23T02:37:34.760Z,99.99
2019-05-23T02:39:35.079Z,99.99
2019-05-23T02:40:34.762Z,99.99
2019-05-23T02:41:35.051Z,99.99
2019-05-23T02:42:34.800Z,99.99
2019-05-23T02:43:34.787Z,99.99
2019-05-23T02:44:34.700Z,99.99
2019-05-23T02:46:34.700Z,99.99
2019-05-23T02:47:34.787Z,99.99
2019-05-23T02:52:34.479Z,99.99
2019-05-23T02:53:34.457Z,99.99
2019-05-23T02:54:37.267Z,99.99
2019-05-23T02:57:34.291Z,99.99
2019-05-23T02:59:34.358Z,99.99
2019-05-23T03:00:52.404Z,99.99
2019-05-23T03:03:34.182Z,99.99
2019-05-23T03:05:34.303Z,99.99
2019-05-23T03:07:34.432Z,99.99
2019-05-23T03:10:34.698Z,99.99
2019-05-23T03:13:34.410Z,99.99
2019-05-23T03:14:34.038Z,99.99
2019-05-23T03:15:33.961Z,99.99
2019-05-23T03:16:33.883Z,99.99
2019-05-23T03:17:34.062Z,99.99
2019-05-23T03:18:34.864Z,99.99
2019-05-23T03:20:33.841Z,99.99
2019-05-23T03:22:33.765Z,99.99
2019-05-23T03:25:33.926Z,99.99
2019-05-23T03:27:33.601Z,99.99
2019-05-23T03:28:33.545Z,99.99
2019-05-23T03:29:33.580Z,99.99
2019-05-23T03:30:33.851Z,99.99
2019-05-23T03:31:33.838Z,99.99
2019-05-23T03:32:38.660Z,99.99
2019-05-23T03:33:33.549Z,99.99
2019-05-23T03:35:33.829Z,99.99
2019-05-23T03:37:33.699Z,99.99
2019-05-23T03:39:33.352Z,99.99
2019-05-23T03:40:33.496Z,99.99
2019-05-23T03:41:33.477Z,99.99
2019-05-23T03:44:33.559Z,99.99
2019-05-23T03:45:33.191Z,99.99
2019-05-23T03:46:33.113Z,99.99
2019-05-23T03:47:33.293Z,99.99
2019-05-23T03:48:33.085Z,99.99
2019-05-23T03:53:33.054Z,99.99
2019-05-23T03:54:32.938Z,99.99
2019-05-23T03:55:33.075Z,99.99
2019-05-23T03:56:33.177Z,99.99
2019-05-23T03:57:33.024Z,99.99
2019-05-23T03:59:32.930Z,99.99
2019-05-23T04:01:46.666Z,99.99
2019-05-23T04:02:32.779Z,99.99
2019-05-23T04:03:32.983Z,99.99
2019-05-23T04:06:32.682Z,99.99
2019-05-23T04:07:32.694Z,99.99
2019-05-23T04:11:33.650Z,99.99
2019-05-23T04:12:32.823Z,99.99
2019-05-23T04:14:32.473Z,99.99
2019-05-23T04:16:32.437Z,99.99
2019-05-23T04:17:32.589Z,99.99
2019-05-23T04:18:32.831Z,99.99
2019-05-23T04:19:32.402Z,99.99
2019-05-23T04:21:32.485Z,99.99
2019-05-23T04:25:32.568Z,99.99
2019-05-23T04:26:32.186Z,99.99
2019-05-23T04:28:32.185Z,99.99
2019-05-23T04:29:32.114Z,99.99
2019-05-23T04:32:32.898Z,99.99
2019-05-23T04:33:32.333Z,99.99
2019-05-23T04:38:35.792Z,99.99
2019-05-23T04:39:32.271Z,99.99
2019-05-23T04:41:32.122Z,99.99
2019-05-23T04:42:32.642Z,99.99
2019-05-23T04:43:31.956Z,99.99
2019-05-23T04:44:31.929Z,99.99
2019-05-23T04:45:32.151Z,99.99
2019-05-23T04:46:32.187Z,99.99
2019-05-23T04:47:31.989Z,99.99
2019-05-23T04:48:31.950Z,99.99
2019-05-23T04:51:32.384Z,99.99
2019-05-23T04:52:31.730Z,99.99
2019-05-23T04:53:31.618Z,99.99
2019-05-23T04:55:31.720Z,99.99
2019-05-23T04:56:31.631Z,99.99
2019-05-23T04:58:31.770Z,99.99
2019-05-23T04:59:31.430Z,99.99
2019-05-23T05:00:31.425Z,99.99
2019-05-23T05:01:31.453Z,99.99
2019-05-23T05:02:31.446Z,99.99
2019-05-23T05:03:31.398Z,99.99
2019-05-23T05:04:31.330Z,99.99
2019-05-23T05:05:31.638Z,99.99
2019-05-23T05:06:31.322Z,99.99
2019-05-23T05:08:31.298Z,99.99
2019-05-23T05:09:32.271Z,99.99
2019-05-23T05:10:31.227Z,99.99
2019-05-23T05:11:31.175Z,99.99
2019-05-23T05:12:31.573Z,99.99
2019-05-23T05:13:31.146Z,99.99
2019-05-23T05:14:31.128Z,99.99
2019-05-23T05:15:31.677Z,99.99
2019-05-23T05:16:31.310Z,99.99
2019-05-23T05:17:31.053Z,99.99
2019-05-23T05:18:31.050Z,99.99
2019-05-23T05:19:31.312Z,99.99
2019-05-23T05:21:31.103Z,99.99
2019-05-23T05:22:30.979Z,99.99
2019-05-23T05:23:31.002Z,99.99
2019-05-23T05:24:30.906Z,99.99
2019-05-23T05:25:30.916Z,99.99
2019-05-23T05:26:31.217Z,99.99
2019-05-23T05:27:31.058Z,99.99
2019-05-23T05:28:31.088Z,99.99
2019-05-23T05:30:30.781Z,99.99
2019-05-23T05:31:30.771Z,99.99
2019-05-23T05:32:44.068Z,99.99
2019-05-23T05:33:32.364Z,99.99
2019-05-23T05:34:30.708Z,99.99
2019-05-23T05:35:30.689Z,99.99
2019-05-23T05:36:30.734Z,99.99
2019-05-23T05:37:30.689Z,99.99
2019-05-23T05:38:30.693Z,99.99
2019-05-23T05:39:30.637Z,99.99
2019-05-23T05:40:30.602Z,99.99
2019-05-23T05:41:30.827Z,99.99
2019-05-23T05:42:30.686Z,99.99
2019-05-23T05:43:30.536Z,99.99
2019-05-23T05:44:30.629Z,99.99
2019-05-23T05:45:30.621Z,99.99
2019-05-23T05:46:30.802Z,99.99
2019-05-23T05:47:30.548Z,99.99
2019-05-23T05:48:30.451Z,99.99
2019-05-23T05:49:30.531Z,99.99
2019-05-23T05:50:30.451Z,99.99
2019-05-23T05:51:30.711Z,99.99
2019-05-23T05:52:32.122Z,99.99
2019-05-23T05:53:30.550Z,99.99
2019-05-23T05:54:30.357Z,99.99
2019-05-23T05:55:31.048Z,99.99
2019-05-23T05:56:30.389Z,99.99
2019-05-23T05:57:30.286Z,99.99
2019-05-23T05:58:30.531Z,99.99
2019-05-23T05:59:30.781Z,99.99
2019-05-23T06:00:30.267Z,99.99
2019-05-23T06:01:33.877Z,99.99
2019-05-23T06:02:30.889Z,99.99
2019-05-23T06:03:30.660Z,99.99
2019-05-23T06:05:30.479Z,99.99
2019-05-23T06:06:30.781Z,99.99
2019-05-23T06:07:30.383Z,99.99
2019-05-23T06:08:30.131Z,99.99
2019-05-23T06:09:30.033Z,99.99
2019-05-23T06:10:30.153Z,99.99
2019-05-23T06:11:30.303Z,99.99
2019-05-23T06:12:29.992Z,99.99
2019-05-23T06:14:30.077Z,99.99
2019-05-23T06:15:29.920Z,99.99
2019-05-23T06:16:29.914Z,99.99
2019-05-23T06:18:30.167Z,99.99
2019-05-23T06:19:30.354Z,99.99
2019-05-23T06:20:29.868Z,99.99
2019-05-23T06:21:29.790Z,99.99
2019-05-23T06:22:29.840Z,99.99
2019-05-23T06:23:29.766Z,99.99
2019-05-23T06:24:45.146Z,99.99
2019-05-23T06:25:30.029Z,99.99
2019-05-23T06:26:29.966Z,99.99
2019-05-23T06:28:29.719Z,99.99
2019-05-23T06:29:29.748Z,99.99
2019-05-23T06:30:32.713Z,99.99
2019-05-23T06:31:29.644Z,99.99
2019-05-23T06:32:29.715Z,99.99
2019-05-23T06:33:29.867Z,99.99
2019-05-23T06:34:29.572Z,99.99
2019-05-23T06:36:29.603Z,99.33
2019-05-23T06:37:34.034Z,97.42
2019-05-23T06:38:29.854Z,96.84
2019-05-23T06:39:29.512Z,95.22
2019-05-23T06:40:29.535Z,95.12
2019-05-23T06:41:29.511Z,93.79
2019-05-23T06:42:29.527Z,93.50
2019-05-23T06:43:29.687Z,93.02
2019-05-23T06:44:29.682Z,93.50
2019-05-23T06:45:29.670Z,93.50
2019-05-23T06:46:29.435Z,94.17
2019-05-23T06:47:29.419Z,93.60
2019-05-23T06:48:29.515Z,93.69
2019-05-23T06:49:29.340Z,92.93
2019-05-23T06:50:29.481Z,93.50
2019-05-23T06:51:29.277Z,93.31
2019-05-23T06:52:29.557Z,93.21
2019-05-23T06:53:29.958Z,92.74
2019-05-23T06:54:29.391Z,90.34
2019-05-23T06:55:29.232Z,91.20
2019-05-23T06:56:29.538Z,91.25
2019-05-23T06:57:33.055Z,91.44
2019-05-23T06:58:29.271Z,89.87
2019-05-23T06:59:29.490Z,89.87
2019-05-23T07:00:29.127Z,89.87
2019-05-23T07:01:29.137Z,89.91
2019-05-23T07:02:32.009Z,90.10
2019-05-23T07:03:41.852Z,90.96
2019-05-23T07:04:29.036Z,90.67
2019-05-23T07:05:32.387Z,90.10
2019-05-23T07:06:29.286Z,89.72
2019-05-23T07:07:29.037Z,88.86
2019-05-23T07:08:29.149Z,89.43
2019-05-23T07:09:28.965Z,90.48
2019-05-23T07:10:28.976Z,90.87
2019-05-23T07:11:28.964Z,90.01
2019-05-23T07:12:29.209Z,89.34
2019-05-23T07:13:28.995Z,88.86
2019-05-23T07:14:29.040Z,89.34
2019-05-23T07:15:28.855Z,89.86
2019-05-23T07:16:28.907Z,89.91
2019-05-23T07:18:29.284Z,89.67
2019-05-23T07:19:28.819Z,88.90
2019-05-23T07:20:28.864Z,87.76
2019-05-23T07:21:30.257Z,89.19
2019-05-23T07:22:33.867Z,89.00
2019-05-23T07:23:29.063Z,87.47
2019-05-23T07:24:30.444Z,85.98
2019-05-23T07:25:28.683Z,83.11
2019-05-23T07:26:30.124Z,82.73
2019-05-23T07:27:28.734Z,82.43
2019-05-23T07:28:28.654Z,82.09
2019-05-23T07:29:28.637Z,83.15
2019-05-23T07:30:28.958Z,81.81
2019-05-23T07:32:28.580Z,80.89
2019-05-23T07:34:35.453Z,79.36
2019-05-23T07:35:28.546Z,79.11
2019-05-23T07:36:29.002Z,78.63
2019-05-23T07:37:28.697Z,78.44
2019-05-23T07:38:28.489Z,77.95
2019-05-23T07:40:28.451Z,77.90
2019-05-23T07:41:30.288Z,76.84
2019-05-23T07:42:28.907Z,76.31
2019-05-23T07:43:28.407Z,75.54
2019-05-23T07:44:28.559Z,75.35
2019-05-23T07:45:28.590Z,75.45
2019-05-23T07:46:28.384Z,74.62
2019-05-23T07:47:28.484Z,72.99
2019-05-23T07:48:28.966Z,73.18
2019-05-23T07:49:28.449Z,72.50
2019-05-23T07:50:28.372Z,73.21
2019-05-23T07:51:29.819Z,73.41
2019-05-23T07:52:28.305Z,72.73
2019-05-23T07:53:28.301Z,71.23
2019-05-23T07:54:29.764Z,70.37
2019-05-23T07:56:28.307Z,70.56
2019-05-23T07:57:28.353Z,70.27
2019-05-23T07:58:28.734Z,69.12
2019-05-23T07:59:28.242Z,69.44
2019-05-23T08:00:28.495Z,68.29
2019-05-23T08:01:28.188Z,66.20
2019-05-23T08:02:28.497Z,66.39
2019-05-23T08:04:28.166Z,67.29
2019-05-23T08:05:28.444Z,67.33
2019-05-23T08:06:28.221Z,65.37
2019-05-23T08:07:32.277Z,64.31
2019-05-23T08:08:28.116Z,63.92
2019-05-23T08:10:33.821Z,64.69
2019-05-23T08:11:28.068Z,65.46
2019-05-23T08:12:28.106Z,65.94
2019-05-23T08:13:28.064Z,65.50
2019-05-23T08:14:28.088Z,63.67
2019-05-23T08:15:28.070Z,64.08
2019-05-23T08:16:28.345Z,63.79
2019-05-23T08:17:28.025Z,63.34
2019-05-23T08:18:28.039Z,62.66
2019-05-23T08:19:28.015Z,61.03
2019-05-23T08:20:27.988Z,61.80
2019-05-23T08:21:27.984Z,60.55
2019-05-23T08:22:28.037Z,61.06
2019-05-23T08:24:28.296Z,60.99
2019-05-23T08:25:27.940Z,60.03
2019-05-23T08:26:27.950Z,59.06
2019-05-23T08:27:27.944Z,59.23
2019-05-23T08:28:28.108Z,58.65
2019-05-23T08:29:28.021Z,60.19
2019-05-23T08:30:27.961Z,60.51
2019-05-23T08:31:28.627Z,59.93
2019-05-23T08:32:27.875Z,58.48
2019-05-23T08:33:27.920Z,58.68
2019-05-23T08:34:40.697Z,59.45
2019-05-23T08:35:27.858Z,59.67
2019-05-23T08:36:27.886Z,58.42
2019-05-23T08:37:27.825Z,58.97
2019-05-23T08:38:28.337Z,59.93
2019-05-23T08:39:28.342Z,60.16
2019-05-23T08:40:28.185Z,59.00
2019-05-23T08:41:27.797Z,57.42
2019-05-23T08:42:28.081Z,57.64
2019-05-23T08:43:27.810Z,57.16
2019-05-23T08:44:28.101Z,57.81
2019-05-23T08:45:27.844Z,58.58
2019-05-23T08:46:27.780Z,58.12
2019-05-23T08:47:27.766Z,57.54
2019-05-23T08:48:27.797Z,57.26
2019-05-23T08:49:27.759Z,57.16
2019-05-23T08:50:29.494Z,56.51
2019-05-23T08:51:27.726Z,55.83
2019-05-23T08:52:27.733Z,56.63
2019-05-23T08:53:27.777Z,57.34
2019-05-23T08:54:28.027Z,57.34
2019-05-23T08:55:27.873Z,55.43
2019-05-23T08:56:28.004Z,55.70
2019-05-23T08:57:27.722Z,53.93
2019-05-23T08:58:27.713Z,55.45
2019-05-23T08:59:27.861Z,56.05
2019-05-23T09:00:27.901Z,55.79
2019-05-23T09:01:27.636Z,55.43
2019-05-23T09:02:27.936Z,53.89
2019-05-23T09:04:27.638Z,52.36
2019-05-23T09:05:27.624Z,53.21
2019-05-23T09:07:27.749Z,55.56
2019-05-23T09:08:28.193Z,53.33
2019-05-23T09:09:29.986Z,51.78
2019-05-23T09:10:27.599Z,52.24
2019-05-23T09:11:27.626Z,51.40
2019-05-23T09:12:27.881Z,51.95
2019-05-23T09:13:27.580Z,51.76
2019-05-23T09:14:27.893Z,52.36
2019-05-23T09:15:27.777Z,52.00
2019-05-23T09:16:27.638Z,51.04
2019-05-23T09:18:27.998Z,52.29
2019-05-23T09:19:27.553Z,50.94
2019-05-23T09:20:27.869Z,49.56
2019-05-23T09:24:28.386Z,50.28
2019-05-23T09:25:27.550Z,50.48
2019-05-23T09:26:27.826Z,50.60
2019-05-23T09:28:27.604Z,50.31
2019-05-23T09:29:27.514Z,50.50
2019-05-23T09:30:27.577Z,49.54
2019-05-23T09:31:27.605Z,50.09
2019-05-23T09:32:27.489Z,49.51
2019-05-23T09:33:27.870Z,49.63
2019-05-23T09:34:27.480Z,50.31
2019-05-23T09:35:27.497Z,50.31
2019-05-23T09:36:28.118Z,50.60
2019-05-23T09:37:27.581Z,49.24
2019-05-23T09:38:27.957Z,49.44
2019-05-23T09:40:28.228Z,49.39
2019-05-23T09:41:27.801Z,50.45
2019-05-23T09:44:27.655Z,49.85
2019-05-23T09:45:28.556Z,49.37
2019-05-23T09:46:27.676Z,49.44
2019-05-23T09:47:27.880Z,50.52
2019-05-23T09:48:27.743Z,49.46
2019-05-23T09:49:27.433Z,48.90
2019-05-23T09:50:28.989Z,48.61
2019-05-23T09:51:27.860Z,50.19
2019-05-23T09:52:27.491Z,48.27
2019-05-23T09:53:27.413Z,47.50
2019-05-23T09:54:28.351Z,48.08
2019-05-23T09:55:27.724Z,48.18
2019-05-23T09:59:27.431Z,47.35
2019-05-23T10:00:27.402Z,46.67
2019-05-23T10:01:27.935Z,47.35
2019-05-23T10:02:28.330Z,47.23
2019-05-23T10:05:41.998Z,49.58
2019-05-23T10:06:29.404Z,48.13
2019-05-23T10:10:31.402Z,48.44
2019-05-23T10:12:30.185Z,48.52
2019-05-23T10:13:38.542Z,49.68
2019-05-23T10:15:28.084Z,47.38
2019-05-23T10:17:30.946Z,47.02
2019-05-23T10:18:29.588Z,46.53
2019-05-23T10:19:28.693Z,45.95
2019-05-23T10:20:27.418Z,45.37
2019-05-23T10:21:27.333Z,45.37
2019-05-23T10:22:27.369Z,46.04
2019-05-23T10:23:27.380Z,45.97
2019-05-23T10:24:27.698Z,45.21
2019-05-23T10:25:27.318Z,45.31
2019-05-23T10:27:27.336Z,43.95
2019-05-23T10:28:27.341Z,44.32
2019-05-23T10:30:27.739Z,45.95
2019-05-23T10:31:27.325Z,46.19
2019-05-23T10:32:27.332Z,46.83
2019-05-23T10:33:27.360Z,49.10
2019-05-23T10:34:27.311Z,50.04
2019-05-23T10:35:27.408Z,50.98
2019-05-23T10:36:27.306Z,53.47
2019-05-23T10:37:27.303Z,54.60
2019-05-23T10:38:29.472Z,57.10
2019-05-23T10:39:27.298Z,56.29
2019-05-23T10:40:27.308Z,53.91
2019-05-23T10:41:27.332Z,53.93
2019-05-23T10:42:27.737Z,54.25
2019-05-23T10:43:27.331Z,53.91
2019-05-23T10:44:27.381Z,50.09
2019-05-23T10:45:27.283Z,47.60
2019-05-23T10:46:28.784Z,47.40
2019-05-23T10:47:27.302Z,46.62
2019-05-23T10:48:27.992Z,45.92
2019-05-23T10:49:27.247Z,45.90
2019-05-23T10:50:43.708Z,47.16
2019-05-23T10:51:27.240Z,45.81
2019-05-23T10:52:27.242Z,47.04
2019-05-23T10:53:27.449Z,47.14
2019-05-23T10:54:28.539Z,48.27
2019-05-23T10:56:27.287Z,48.52
2019-05-23T10:57:27.238Z,46.12
2019-05-23T10:58:27.270Z,46.02
2019-05-23T10:59:27.271Z,45.15
2019-05-23T11:00:27.885Z,45.83
2019-05-23T11:01:27.787Z,44.47
2019-05-23T11:02:27.370Z,44.54
2019-05-23T11:03:27.263Z,45.90
2019-05-23T11:04:27.281Z,45.22
2019-05-23T11:06:28.649Z,43.23
2019-05-23T11:08:30.361Z,43.54
2019-05-23T11:09:37.455Z,43.18
2019-05-23T11:10:28.502Z,43.57
2019-05-23T11:11:27.614Z,43.45
2019-05-23T11:12:27.197Z,43.50
2019-05-23T11:13:27.539Z,44.13
2019-05-23T11:14:27.197Z,45.54
2019-05-23T11:15:27.195Z,47.07
2019-05-23T11:16:27.260Z,47.43
2019-05-23T11:18:27.191Z,49.37
2019-05-23T11:19:28.318Z,50.40
2019-05-23T11:20:28.036Z,49.70
2019-05-23T11:21:27.190Z,50.06
2019-05-23T11:22:34.116Z,51.89
2019-05-23T11:23:27.473Z,53.73
2019-05-23T11:24:27.155Z,53.27
2019-05-23T11:25:27.191Z,51.61
2019-05-23T11:26:28.025Z,49.17
2019-05-23T11:27:27.764Z,48.18
2019-05-23T11:29:29.000Z,45.25
2019-05-23T11:30:28.015Z,45.68
2019-05-23T11:31:27.298Z,46.84
2019-05-23T11:32:27.686Z,46.83
2019-05-23T11:33:27.149Z,46.46
2019-05-23T11:34:27.467Z,47.62
2019-05-23T11:35:27.118Z,47.16
2019-05-23T11:36:35.356Z,47.09
2019-05-23T11:37:27.073Z,45.10
2019-05-23T11:38:28.731Z,42.40
2019-05-23T11:39:27.147Z,42.33
2019-05-23T11:43:27.089Z,44.50
2019-05-23T11:45:27.054Z,45.95
2019-05-23T11:46:28.942Z,45.90
2019-05-23T11:48:27.341Z,44.79
2019-05-23T11:49:27.830Z,45.61
2019-05-23T11:50:26.994Z,43.72
2019-05-23T11:51:27.124Z,43.26
2019-05-23T11:52:28.386Z,43.76
2019-05-23T11:53:27.032Z,44.95
2019-05-23T11:54:27.012Z,46.14
2019-05-23T11:56:27.419Z,43.44
2019-05-23T11:57:27.416Z,41.61
2019-05-23T11:58:27.023Z,41.51
2019-05-23T11:59:26.955Z,40.08
2019-05-23T12:00:27.122Z,40.00
2019-05-23T12:01:27.003Z,39.82
2019-05-23T12:02:28.617Z,38.17
2019-05-23T12:03:27.588Z,37.50
2019-05-23T12:04:27.070Z,37.02
2019-05-23T12:05:27.112Z,37.48
2019-05-23T12:06:26.990Z,36.22
2019-05-23T12:07:27.009Z,35.81
2019-05-23T12:08:28.696Z,37.04
2019-05-23T12:10:27.281Z,38.27
2019-05-23T12:15:27.280Z,42.18
2019-05-23T12:16:26.932Z,42.74
2019-05-23T12:17:27.072Z,44.07
2019-05-23T12:18:26.938Z,44.24
2019-05-23T12:24:27.198Z,47.16
2019-05-23T12:25:26.968Z,47.74
2019-05-23T12:26:26.967Z,48.13
2019-05-23T12:29:26.893Z,45.83
2019-05-23T12:30:28.220Z,43.54
2019-05-23T12:31:26.906Z,40.67
2019-05-23T12:32:26.854Z,40.01
2019-05-23T12:33:27.017Z,39.55
2019-05-23T12:34:26.995Z,39.47
2019-05-23T12:35:26.845Z,37.32
2019-05-23T12:36:27.210Z,36.55
2019-05-23T12:37:26.907Z,36.77
2019-05-23T12:38:26.950Z,36.08
2019-05-23T12:39:26.937Z,37.56
2019-05-23T12:40:27.132Z,36.98
2019-05-23T12:41:27.577Z,36.32
2019-05-23T12:42:27.188Z,36.30
2019-05-23T12:44:26.861Z,39.03
2019-05-23T12:45:26.821Z,35.91
2019-05-23T12:46:26.873Z,35.73
2019-05-23T12:48:26.862Z,35.34
2019-05-23T12:49:27.168Z,34.56
2019-05-23T12:51:26.935Z,38.01
2019-05-23T12:52:26.846Z,39.55
2019-05-23T12:53:26.805Z,39.96
2019-05-23T12:54:26.820Z,38.98
2019-05-23T12:56:27.113Z,37.08
2019-05-23T12:57:26.800Z,36.51
2019-05-23T12:58:27.123Z,35.63
2019-05-23T12:59:26.851Z,35.91
2019-05-23T13:00:26.814Z,35.42
2019-05-23T13:01:26.788Z,35.41
2019-05-23T13:02:26.856Z,35.68
2019-05-23T13:03:27.155Z,36.26
2019-05-23T13:05:27.028Z,35.70
2019-05-23T13:06:26.788Z,35.78
2019-05-23T13:07:35.639Z,36.07
2019-05-23T13:08:26.832Z,36.46
2019-05-23T13:09:26.829Z,36.75
2019-05-23T13:11:27.056Z,36.69
2019-05-23T13:12:27.624Z,36.20
2019-05-23T13:13:26.787Z,35.21
2019-05-23T13:14:26.950Z,35.47
2019-05-23T13:15:26.921Z,36.05
2019-05-23T13:16:27.520Z,36.54
2019-05-23T13:17:27.374Z,37.43
2019-05-23T13:19:26.990Z,35.61
2019-05-23T13:20:26.847Z,34.66
2019-05-23T13:21:26.782Z,34.72
2019-05-23T13:24:26.789Z,36.47
2019-05-23T13:25:26.783Z,36.20
2019-05-23T13:26:26.783Z,35.63
2019-05-23T13:27:26.844Z,34.05
2019-05-23T13:28:26.855Z,34.32
2019-05-23T13:29:27.991Z,36.28
2019-05-23T13:30:29.297Z,36.08
2019-05-23T13:31:27.284Z,35.93
2019-05-23T13:32:27.169Z,34.27
2019-05-23T13:33:26.775Z,35.13
2019-05-23T13:34:27.306Z,35.02
2019-05-23T13:35:28.437Z,35.68
2019-05-23T13:36:26.826Z,36.08
2019-05-23T13:37:27.071Z,35.15
2019-05-23T13:38:27.469Z,34.68
2019-05-23T13:39:26.765Z,34.11
2019-05-23T13:40:26.909Z,34.79
2019-05-23T13:42:27.323Z,33.92
2019-05-23T13:43:26.797Z,34.89
2019-05-23T13:44:33.370Z,34.47
2019-05-23T13:47:26.789Z,36.65
2019-05-23T13:48:28.207Z,36.93
2019-05-23T13:49:28.220Z,36.40
2019-05-23T13:50:32.493Z,37.55
2019-05-23T13:51:26.766Z,37.47
2019-05-23T13:52:26.883Z,37.90
2019-05-23T13:55:27.274Z,35.58
2019-05-23T13:56:26.816Z,36.26
2019-05-23T13:57:27.469Z,35.70
2019-05-23T13:59:26.842Z,35.37
2019-05-23T14:00:26.867Z,36.60
2019-05-23T14:02:26.790Z,37.18
2019-05-23T14:03:26.870Z,36.97
2019-05-23T14:04:26.925Z,36.93
2019-05-23T14:05:26.799Z,38.39
2019-05-23T14:06:26.976Z,39.62
2019-05-23T14:07:27.299Z,39.84
2019-05-23T14:08:26.760Z,39.86
2019-05-23T14:09:26.793Z,40.08
2019-05-23T14:10:26.747Z,40.48
2019-05-23T14:11:26.738Z,41.36
2019-05-23T14:12:27.078Z,39.43
2019-05-23T14:14:28.018Z,38.75
2019-05-23T14:15:27.659Z,37.76
2019-05-23T14:17:26.754Z,38.44
2019-05-23T14:18:26.865Z,39.01
2019-05-23T14:19:29.503Z,39.39
2019-05-23T14:21:27.541Z,38.87
2019-05-23T14:22:26.707Z,39.72
2019-05-23T14:23:27.373Z,40.50
2019-05-23T14:24:26.928Z,41.55
2019-05-23T14:25:27.206Z,41.93
2019-05-23T14:27:27.177Z,42.22
2019-05-23T14:28:27.258Z,42.10
2019-05-23T14:29:27.958Z,41.70
2019-05-23T14:30:27.961Z,41.70
2019-05-23T14:31:28.617Z,42.86
2019-05-23T14:32:28.153Z,42.40
2019-05-23T14:33:26.716Z,41.14
2019-05-23T14:34:26.905Z,41.24
2019-05-23T14:35:27.565Z,41.14
2019-05-23T14:36:31.439Z,42.90
2019-05-23T14:37:26.924Z,44.18
2019-05-23T14:38:30.874Z,43.21
2019-05-23T14:39:26.633Z,42.85
2019-05-23T14:40:27.578Z,44.40
2019-05-23T14:41:43.757Z,44.59
2019-05-23T14:42:26.670Z,44.30
2019-05-23T14:43:26.994Z,43.99
2019-05-23T14:44:27.087Z,44.37
2019-05-23T14:45:26.897Z,44.09
2019-05-23T14:46:26.823Z,44.64
2019-05-23T14:47:26.804Z,42.61
2019-05-23T14:48:26.713Z,43.58
2019-05-23T14:49:28.533Z,43.38
2019-05-23T14:52:26.866Z,44.43
2019-05-23T14:53:26.553Z,43.82
2019-05-23T14:54:26.649Z,44.79
2019-05-23T14:55:26.761Z,44.79
2019-05-23T14:57:26.532Z,45.66
2019-05-23T14:58:26.718Z,44.70
2019-05-23T14:59:27.154Z,43.54
2019-05-23T15:00:26.926Z,44.13
2019-05-23T15:01:28.449Z,43.54
2019-05-23T15:02:26.496Z,42.16
2019-05-23T15:03:26.578Z,42.52
2019-05-23T15:04:26.709Z,42.82
2019-05-23T15:05:26.483Z,43.40
2019-05-23T15:06:26.910Z,44.75
2019-05-23T15:07:26.741Z,45.83
2019-05-23T15:08:26.541Z,45.74
2019-05-23T15:09:26.432Z,44.12
2019-05-23T15:10:26.443Z,44.50
2019-05-23T15:11:26.532Z,44.60
2019-05-23T15:12:26.415Z,44.50
2019-05-23T15:13:26.993Z,45.28
2019-05-23T15:14:26.455Z,44.31
2019-05-23T15:15:26.677Z,44.89
2019-05-23T15:16:26.415Z,44.31
2019-05-23T15:17:27.121Z,45.47
2019-05-23T15:18:26.377Z,45.57
2019-05-23T15:19:41.731Z,44.79
2019-05-23T15:20:26.337Z,44.50
2019-05-23T15:22:26.321Z,45.64
2019-05-23T15:23:26.316Z,44.48
2019-05-23T15:24:26.346Z,43.99
2019-05-23T15:25:26.369Z,45.23
2019-05-23T15:26:26.713Z,45.74
2019-05-23T15:27:26.290Z,45.45
2019-05-23T15:28:26.307Z,44.29
2019-05-23T15:29:29.197Z,44.77
2019-05-23T15:30:26.337Z,45.54
2019-05-23T15:31:26.458Z,46.12
2019-05-23T15:33:26.296Z,45.83
2019-05-23T15:34:26.319Z,45.18
2019-05-23T15:35:26.216Z,44.29
2019-05-23T15:36:26.240Z,44.57
2019-05-23T15:37:26.390Z,44.38
2019-05-23T15:39:26.667Z,46.00
2019-05-23T15:40:27.642Z,44.84
2019-05-23T15:41:26.189Z,44.07
2019-05-23T15:42:26.152Z,44.67
2019-05-23T15:43:26.298Z,45.06
2019-05-23T15:44:29.225Z,45.28
2019-05-23T15:45:26.166Z,44.31
2019-05-23T15:46:26.220Z,43.92
2019-05-23T15:47:26.105Z,45.18
2019-05-23T15:48:26.304Z,44.60
2019-05-23T15:49:26.318Z,43.44
2019-05-23T15:50:26.390Z,43.95
2019-05-23T15:51:26.655Z,44.53
2019-05-23T15:52:26.066Z,44.04
2019-05-23T15:53:26.062Z,44.23
2019-05-23T15:54:26.123Z,44.91
2019-05-23T15:55:27.512Z,44.91
2019-05-23T15:56:28.981Z,43.63
2019-05-23T15:57:27.430Z,43.54
2019-05-23T15:58:28.856Z,43.90
2019-05-23T15:59:27.988Z,44.38